Time;durP1;ratioP1;P1;durP2;ratioP2;P2;SDS_P1;SDS_P2;PMS_P1;PMS_P2;Temp;Humidity;BMP_temperature;BMP_pressure;BME280_temperature;BME280_humidity;BME280_pressure;Samples;Min_cycle;Max_cycle;Signal;HPM_P1;HPM_P2
2024/01/15 00:02:03;;;;;;;;;;;0.30;100.00;;;;;;5032389;28;20032;-69
2024/01/15 00:04:30;;;;;;;;;;;0.30;100.00;;;;;;5027791;28;19925;-69
2024/01/15 00:06:57;;;;;;;;;;;0.20;100.00;;;;;;5044626;28;20006;-70
2024/01/15 00:09:24;;;;;;;;;;;0.20;100.00;;;;;;5045586;28;19928;-69
2024/01/15 00:11:50;;;;;;;;;;;0.20;100.00;;;;;;5044503;28;19936;-69
2024/01/15 00:14:19;;;;;;;;;;;0.20;100.00;;;;;;5064539;28;20035;-69
2024/01/15 00:16:48;;;;;;;;;;;0.30;100.00;;;;;;5051051;28;19982;-69
2024/01/15 00:19:15;;;;;;;;;;;0.30;100.00;;;;;;5046097;28;19971;-69
2024/01/15 00:21:43;;;;;;;;;;;0.30;100.00;;;;;;5045687;28;20047;-69
2024/01/15 00:24:10;;;;;;;;;;;0.30;100.00;;;;;;5046927;28;19933;-69
2024/01/15 00:26:36;;;;;;;;;;;0.30;100.00;;;;;;5046849;28;19963;-69
2024/01/15 00:29:03;;;;;;;;;;;0.30;100.00;;;;;;5044751;28;19936;-69
2024/01/15 00:31:30;;;;;;;;;;;0.30;100.00;;;;;;5033682;28;19967;-69
2024/01/15 00:33:57;;;;;;;;;;;0.30;100.00;;;;;;5032463;28;20002;-68
2024/01/15 00:36:25;;;;;;;;;;;0.30;100.00;;;;;;5048887;28;19928;-69
2024/01/15 00:38:52;;;;;;;;;;;0.30;100.00;;;;;;5035807;28;19979;-69
2024/01/15 00:41:18;;;;;;;;;;;0.30;100.00;;;;;;5045483;28;19999;-69
2024/01/15 00:43:45;;;;;;;;;;;0.40;100.00;;;;;;5044070;28;20443;-69
2024/01/15 00:46:12;;;;;;;;;;;0.40;100.00;;;;;;5031737;28;19972;-69
2024/01/15 00:48:39;;;;;;;;;;;0.50;100.00;;;;;;5045884;28;19937;-65
2024/01/15 00:51:06;;;;;;;;;;;0.50;100.00;;;;;;5042686;28;19925;-65
2024/01/15 00:53:32;;;;;;;;;;;0.50;100.00;;;;;;5031431;28;19929;-65
2024/01/15 00:56:00;;;;;;;;;;;0.50;100.00;;;;;;5027285;28;19983;-65
2024/01/15 00:58:27;;;;;;;;;;;0.60;100.00;;;;;;5029268;28;19991;-66
2024/01/15 01:00:53;;;;;;;;;;;0.60;100.00;;;;;;5047003;28;19933;-65
2024/01/15 01:03:20;;;;;;;;;;;0.60;100.00;;;;;;5046180;28;19925;-65
2024/01/15 01:05:50;;;;;;;;;;;0.60;100.00;;;;;;5027931;28;19943;-65
2024/01/15 01:08:17;;;;;;;;;;;0.60;100.00;;;;;;5052272;28;19974;-69
2024/01/15 01:10:44;;;;;;;;;;;0.60;100.00;;;;;;5026885;28;19929;-69
2024/01/15 01:13:11;;;;;;;;;;;0.70;100.00;;;;;;5027187;28;19928;-69
2024/01/15 01:15:38;;;;;;;;;;;0.70;100.00;;;;;;5043659;28;20019;-70
2024/01/15 01:18:05;;;;;;;;;;;0.70;100.00;;;;;;5044735;28;19928;-69
2024/01/15 01:20:32;;;;;;;;;;;0.70;100.00;;;;;;5047497;28;19929;-69
2024/01/15 01:22:59;;;;;;;;;;;0.70;100.00;;;;;;5050141;28;19933;-69
2024/01/15 01:25:26;;;;;;;;;;;0.70;100.00;;;;;;5044694;28;20006;-69
2024/01/15 01:27:53;;;;;;;;;;;0.70;100.00;;;;;;5030177;28;20437;-69
2024/01/15 01:30:20;;;;;;;;;;;0.70;100.00;;;;;;5043980;28;20007;-70
2024/01/15 01:32:47;;;;;;;;;;;0.70;100.00;;;;;;5048451;28;19929;-69
2024/01/15 01:35:14;;;;;;;;;;;0.80;100.00;;;;;;5038835;28;19936;-69
2024/01/15 01:37:40;;;;;;;;;;;0.70;100.00;;;;;;5037993;28;19931;-69
2024/01/15 01:40:08;;;;;;;;;;;0.70;100.00;;;;;;5047872;28;19939;-69
2024/01/15 01:42:34;;;;;;;;;;;0.70;100.00;;;;;;5048568;28;19964;-69
2024/01/15 01:45:01;;;;;;;;;;;0.60;100.00;;;;;;5047953;28;19928;-69
2024/01/15 01:47:28;;;;;;;;;;;0.60;100.00;;;;;;5032167;28;19928;-69
2024/01/15 01:49:55;;;;;;;;;;;0.60;100.00;;;;;;5034349;28;19928;-69
2024/01/15 01:52:22;;;;;;;;;;;0.70;100.00;;;;;;5033950;28;20012;-69
2024/01/15 01:54:49;;;;;;;;;;;0.70;100.00;;;;;;5031373;28;19987;-69
2024/01/15 01:57:16;;;;;;;;;;;0.80;100.00;;;;;;5049605;28;19983;-69
2024/01/15 01:59:44;;;;;;;;;;;0.80;100.00;;;;;;5047720;28;19935;-70
2024/01/15 02:02:11;;;;;;;;;;;0.80;100.00;;;;;;5038758;28;20803;-69
2024/01/15 02:04:38;;;;;;;;;;;0.70;100.00;;;;;;5047813;28;19936;-69
2024/01/15 02:07:05;;;;;;;;;;;0.70;100.00;;;;;;5030509;28;19925;-69
2024/01/15 02:09:32;;;;;;;;;;;0.80;100.00;;;;;;5047633;28;19928;-68
2024/01/15 02:11:59;;;;;;;;;;;0.70;100.00;;;;;;5047734;28;20046;-69
2024/01/15 02:14:26;;;;;;;;;;;0.80;100.00;;;;;;5043342;28;19976;-69
2024/01/15 02:16:52;;;;;;;;;;;0.80;100.00;;;;;;5030230;28;19974;-69
2024/01/15 02:19:19;;;;;;;;;;;0.70;100.00;;;;;;5047682;28;20479;-69
2024/01/15 02:21:46;;;;;;;;;;;0.70;100.00;;;;;;5032544;28;19948;-69
2024/01/15 02:24:13;;;;;;;;;;;0.70;100.00;;;;;;5046696;28;19929;-69
2024/01/15 02:26:40;;;;;;;;;;;0.70;100.00;;;;;;5033872;28;20296;-69
2024/01/15 02:29:10;;;;;;;;;;;0.60;100.00;;;;;;5047466;28;19928;-69
2024/01/15 02:31:37;;;;;;;;;;;0.70;100.00;;;;;;5047272;28;19937;-69
2024/01/15 02:34:05;;;;;;;;;;;0.70;100.00;;;;;;5030045;28;19933;-69
2024/01/15 02:36:32;;;;;;;;;;;0.70;100.00;;;;;;5028750;28;19951;-69
2024/01/15 02:38:58;;;;;;;;;;;0.80;100.00;;;;;;5035428;28;19929;-69
2024/01/15 02:41:25;;;;;;;;;;;0.80;100.00;;;;;;5047170;28;20583;-69
2024/01/15 02:43:52;;;;;;;;;;;0.80;100.00;;;;;;5045795;28;19936;-69
2024/01/15 02:46:18;;;;;;;;;;;0.80;100.00;;;;;;5046648;28;20326;-69
2024/01/15 02:48:45;;;;;;;;;;;0.80;100.00;;;;;;5044620;28;19935;-69
2024/01/15 02:51:12;;;;;;;;;;;0.80;100.00;;;;;;5045831;28;20046;-69
2024/01/15 02:53:39;;;;;;;;;;;0.80;100.00;;;;;;5045972;28;19929;-69
2024/01/15 02:56:07;;;;;;;;;;;0.80;100.00;;;;;;5042868;28;20069;-69
2024/01/15 02:58:33;;;;;;;;;;;0.80;100.00;;;;;;5046548;28;20481;-69
2024/01/15 03:01:00;;;;;;;;;;;0.90;100.00;;;;;;5049019;28;20002;-69
2024/01/15 03:03:28;;;;;;;;;;;0.90;100.00;;;;;;5062992;28;19929;-69
2024/01/15 03:05:55;;;;;;;;;;;0.90;100.00;;;;;;5044999;28;19929;-69
2024/01/15 03:08:22;;;;;;;;;;;0.90;100.00;;;;;;5045976;28;19964;-69
2024/01/15 03:10:49;;;;;;;;;;;0.90;100.00;;;;;;5064168;28;19933;-69
2024/01/15 03:13:16;;;;;;;;;;;0.90;100.00;;;;;;5047490;28;19932;-65
2024/01/15 03:15:43;;;;;;;;;;;0.90;100.00;;;;;;5035386;28;19975;-65
2024/01/15 03:18:10;;;;;;;;;;;0.90;100.00;;;;;;5045089;28;19941;-65
2024/01/15 03:20:37;;;;;;;;;;;0.90;100.00;;;;;;5047973;28;19928;-66
2024/01/15 03:23:04;;;;;;;;;;;0.90;100.00;;;;;;5064581;28;19925;-65
2024/01/15 03:25:30;;;;;;;;;;;0.90;100.00;;;;;;5046887;28;20310;-65
2024/01/15 03:27:57;;;;;;;;;;;0.90;100.00;;;;;;5046831;28;19936;-66
2024/01/15 03:30:24;;;;;;;;;;;0.90;100.00;;;;;;5045704;28;20015;-66
2024/01/15 03:32:51;;;;;;;;;;;0.80;100.00;;;;;;5053800;28;19933;-65
2024/01/15 03:35:18;;;;;;;;;;;0.80;100.00;;;;;;5045712;28;19928;-66
2024/01/15 03:37:44;;;;;;;;;;;0.70;100.00;;;;;;5045681;28;20037;-66
2024/01/15 03:40:11;;;;;;;;;;;0.70;100.00;;;;;;5045907;28;19929;-66
2024/01/15 03:42:38;;;;;;;;;;;0.70;100.00;;;;;;5043935;28;19929;-66
2024/01/15 03:45:05;;;;;;;;;;;0.70;100.00;;;;;;5044777;28;20332;-66
2024/01/15 03:47:32;;;;;;;;;;;0.70;100.00;;;;;;5034860;28;19964;-66
2024/01/15 03:49:59;;;;;;;;;;;0.70;100.00;;;;;;5020777;28;19932;-66
2024/01/15 03:52:26;;;;;;;;;;;0.60;100.00;;;;;;5044801;28;19932;-66
2024/01/15 03:54:52;;;;;;;;;;;0.60;100.00;;;;;;5028000;28;19936;-66
2024/01/15 03:57:19;;;;;;;;;;;0.50;100.00;;;;;;5044163;28;19929;-66
2024/01/15 03:59:47;;;;;;;;;;;0.50;100.00;;;;;;5044873;28;19928;-66
2024/01/15 04:02:14;;;;;;;;;;;0.60;100.00;;;;;;5059320;28;19925;-66
2024/01/15 04:04:42;;;;;;;;;;;0.60;100.00;;;;;;5061750;28;19932;-65
2024/01/15 04:07:09;;;;;;;;;;;0.60;100.00;;;;;;5045497;28;19935;-66
2024/01/15 04:09:36;;;;;;;;;;;0.70;100.00;;;;;;5028916;28;19936;-65
2024/01/15 04:12:03;;;;;;;;;;;0.70;100.00;;;;;;5044119;28;19932;-66
2024/01/15 04:14:30;;;;;;;;;;;0.80;100.00;;;;;;5061564;28;19929;-66
2024/01/15 04:16:56;;;;;;;;;;;0.80;100.00;;;;;;5045465;28;20585;-66
2024/01/15 04:19:23;;;;;;;;;;;0.90;100.00;;;;;;5028320;28;19928;-66
2024/01/15 04:21:50;;;;;;;;;;;0.90;100.00;;;;;;5027856;28;19935;-66
2024/01/15 04:24:17;;;;;;;;;;;1.00;100.00;;;;;;5030405;28;19940;-66
2024/01/15 04:26:45;;;;;;;;;;;1.00;100.00;;;;;;5045212;28;19925;-65
2024/01/15 04:29:12;;;;;;;;;;;1.00;100.00;;;;;;5048036;28;20381;-66
2024/01/15 04:31:38;;;;;;;;;;;1.10;100.00;;;;;;5044752;28;19928;-66
2024/01/15 04:34:05;;;;;;;;;;;1.10;100.00;;;;;;5044434;28;20395;-66
2024/01/15 04:36:38;;;;;;;;;;;1.10;100.00;;;;;;5044843;28;20073;-66
2024/01/15 04:39:04;;;;;;;;;;;1.00;100.00;;;;;;5045333;28;19964;-66
2024/01/15 04:41:31;;;;;;;;;;;1.10;100.00;;;;;;5027558;28;19932;-66
2024/01/15 04:44:00;;;;;;;;;;;1.00;100.00;;;;;;5026001;28;20051;-65
2024/01/15 04:46:27;;;;;;;;;;;1.10;100.00;;;;;;5045348;28;19929;-66
2024/01/15 04:48:53;;;;;;;;;;;1.10;100.00;;;;;;5045173;28;19932;-66
2024/01/15 04:51:20;;;;;;;;;;;1.00;100.00;;;;;;5045176;28;19925;-66
2024/01/15 04:53:47;;;;;;;;;;;1.00;100.00;;;;;;5044084;28;19972;-65
2024/01/15 04:56:14;;;;;;;;;;;0.80;100.00;;;;;;5044880;28;20025;-66
2024/01/15 04:58:40;;;;;;;;;;;0.60;100.00;;;;;;5046431;28;19928;-66
2024/01/15 05:01:08;;;;;;;;;;;0.60;100.00;;;;;;5027636;28;20029;-65
2024/01/15 05:03:35;;;;;;;;;;;0.50;100.00;;;;;;5050650;28;20023;-65
2024/01/15 05:06:02;;;;;;;;;;;0.50;100.00;;;;;;5060878;28;19940;-66
2024/01/15 05:08:29;;;;;;;;;;;0.50;100.00;;;;;;5044723;28;19925;-66
2024/01/15 05:10:56;;;;;;;;;;;0.50;100.00;;;;;;5033447;28;19929;-66
2024/01/15 05:13:23;;;;;;;;;;;0.50;100.00;;;;;;5058938;28;19940;-66
2024/01/15 05:15:49;;;;;;;;;;;0.50;100.00;;;;;;5059891;28;20341;-66
2024/01/15 05:18:17;;;;;;;;;;;0.50;100.00;;;;;;5049983;28;20070;-66
2024/01/15 05:20:44;;;;;;;;;;;0.60;100.00;;;;;;5046674;28;19928;-66
2024/01/15 05:23:10;;;;;;;;;;;0.70;100.00;;;;;;5044905;28;20003;-66
2024/01/15 05:25:37;;;;;;;;;;;0.70;100.00;;;;;;5027692;28;19929;-66
2024/01/15 05:28:05;;;;;;;;;;;0.80;100.00;;;;;;5022412;28;20349;-66
2024/01/15 05:30:31;;;;;;;;;;;0.90;100.00;;;;;;5030976;28;20357;-66
2024/01/15 05:33:00;;;;;;;;;;;0.90;100.00;;;;;;5044677;28;19929;-66
2024/01/15 05:35:27;;;;;;;;;;;0.90;100.00;;;;;;5060870;28;20340;-66
2024/01/15 05:37:53;;;;;;;;;;;0.90;100.00;;;;;;5028602;28;19928;-66
2024/01/15 05:40:20;;;;;;;;;;;0.90;100.00;;;;;;5043691;28;20521;-66
2024/01/15 05:42:47;;;;;;;;;;;0.90;100.00;;;;;;5024274;28;20400;-66
2024/01/15 05:45:14;;;;;;;;;;;0.80;100.00;;;;;;5046941;28;20293;-66
2024/01/15 05:47:41;;;;;;;;;;;0.90;100.00;;;;;;5027991;28;19998;-66
2024/01/15 05:50:08;;;;;;;;;;;0.90;100.00;;;;;;5046505;28;20002;-66
2024/01/15 05:52:35;;;;;;;;;;;0.90;100.00;;;;;;5043630;28;19929;-66
2024/01/15 05:55:03;;;;;;;;;;;0.90;100.00;;;;;;5028569;28;19969;-66
2024/01/15 05:57:29;;;;;;;;;;;0.90;100.00;;;;;;5043244;28;19928;-66
2024/01/15 05:59:56;;;;;;;;;;;1.00;100.00;;;;;;5042690;28;20019;-66
2024/01/15 06:02:23;;;;;;;;;;;1.00;100.00;;;;;;5042723;28;19968;-67
2024/01/15 06:04:50;;;;;;;;;;;1.10;100.00;;;;;;5042572;28;20023;-66
2024/01/15 06:07:17;;;;;;;;;;;1.10;100.00;;;;;;5041896;28;20540;-67
2024/01/15 06:09:43;;;;;;;;;;;1.10;100.00;;;;;;5028447;28;20375;-66
2024/01/15 06:12:10;;;;;;;;;;;1.10;100.00;;;;;;5044256;28;19978;-65
2024/01/15 06:14:37;;;;;;;;;;;1.10;100.00;;;;;;5026928;28;19936;-65
2024/01/15 06:17:04;;;;;;;;;;;1.10;100.00;;;;;;5015957;28;19929;-65
2024/01/15 06:19:31;;;;;;;;;;;1.20;100.00;;;;;;5028366;28;20047;-65
2024/01/15 06:21:58;;;;;;;;;;;1.20;100.00;;;;;;5047214;28;20357;-66
2024/01/15 06:24:25;;;;;;;;;;;1.20;100.00;;;;;;5046874;28;20435;-66
2024/01/15 06:26:52;;;;;;;;;;;1.20;100.00;;;;;;5046703;28;20007;-66
2024/01/15 06:29:19;;;;;;;;;;;1.20;100.00;;;;;;5051971;28;19929;-65
2024/01/15 06:31:45;;;;;;;;;;;1.20;100.00;;;;;;5047566;28;20347;-66
2024/01/15 06:34:12;;;;;;;;;;;1.20;100.00;;;;;;5045826;28;19935;-66
2024/01/15 06:36:39;;;;;;;;;;;1.30;100.00;;;;;;5033712;28;19925;-66
2024/01/15 06:39:06;;;;;;;;;;;1.20;100.00;;;;;;5054842;28;19965;-67
2024/01/15 06:41:33;;;;;;;;;;;1.30;100.00;;;;;;5051477;28;20363;-67
2024/01/15 06:44:00;;;;;;;;;;;1.30;100.00;;;;;;5045878;28;19998;-67
2024/01/15 06:46:27;;;;;;;;;;;1.30;100.00;;;;;;5030890;28;20019;-67
2024/01/15 06:48:54;;;;;;;;;;;1.30;100.00;;;;;;5049217;28;19982;-67
2024/01/15 06:51:21;;;;;;;;;;;1.30;100.00;;;;;;5045693;28;19951;-67
2024/01/15 06:53:48;;;;;;;;;;;1.30;100.00;;;;;;5046188;28;19929;-67
2024/01/15 06:56:14;;;;;;;;;;;1.30;100.00;;;;;;5046771;28;19976;-67
2024/01/15 06:58:41;;;;;;;;;;;1.40;100.00;;;;;;5047046;28;19929;-67
2024/01/15 07:01:08;;;;;;;;;;;1.30;100.00;;;;;;5045019;28;20034;-67
2024/01/15 07:03:35;;;;;;;;;;;1.40;100.00;;;;;;5028710;28;19933;-67
2024/01/15 07:06:02;;;;;;;;;;;1.40;100.00;;;;;;5047453;28;20012;-66
2024/01/15 07:08:29;;;;;;;;;;;1.40;100.00;;;;;;5047241;28;20428;-67
2024/01/15 07:10:55;;;;;;;;;;;1.40;100.00;;;;;;5062286;28;19929;-67
2024/01/15 07:13:22;;;;;;;;;;;1.40;100.00;;;;;;5045379;28;19933;-66
2024/01/15 07:15:50;;;;;;;;;;;1.40;100.00;;;;;;5046809;28;19929;-67
2024/01/15 07:18:17;;;;;;;;;;;1.40;100.00;;;;;;5046690;28;19928;-66
2024/01/15 07:20:44;;;;;;;;;;;1.40;100.00;;;;;;5046360;28;19928;-67
2024/01/15 07:23:10;;;;;;;;;;;1.30;100.00;;;;;;5044719;28;20572;-67
2024/01/15 07:25:37;;;;;;;;;;;1.30;100.00;;;;;;5028581;28;19990;-66
2024/01/15 07:28:04;;;;;;;;;;;1.30;100.00;;;;;;5046734;28;19940;-67
2024/01/15 07:30:31;;;;;;;;;;;1.30;100.00;;;;;;5061472;28;19925;-67
2024/01/15 07:32:58;;;;;;;;;;;1.20;100.00;;;;;;5045441;28;19944;-67
2024/01/15 07:35:25;;;;;;;;;;;1.20;100.00;;;;;;5046520;28;19928;-67
2024/01/15 07:37:52;;;;;;;;;;;1.20;100.00;;;;;;5028889;28;19932;-67
2024/01/15 07:40:18;;;;;;;;;;;1.20;100.00;;;;;;5061443;28;19936;-67
2024/01/15 07:42:45;;;;;;;;;;;1.20;100.00;;;;;;5028022;28;20379;-67
2024/01/15 07:45:12;;;;;;;;;;;1.20;100.00;;;;;;5046385;28;19929;-67
2024/01/15 07:47:39;;;;;;;;;;;1.20;100.00;;;;;;5044916;28;20041;-67
2024/01/15 07:50:06;;;;;;;;;;;1.20;100.00;;;;;;5046089;28;19929;-67
2024/01/15 07:52:33;;;;;;;;;;;1.20;100.00;;;;;;5045556;28;19929;-67
2024/01/15 07:55:00;;;;;;;;;;;1.20;100.00;;;;;;5047921;28;19929;-66
2024/01/15 07:57:27;;;;;;;;;;;1.10;100.00;;;;;;5034167;28;19932;-66
2024/01/15 07:59:54;;;;;;;;;;;1.20;100.00;;;;;;5045798;28;20053;-67
2024/01/15 08:02:21;;;;;;;;;;;1.20;100.00;;;;;;5045807;28;20556;-70
2024/01/15 08:04:48;;;;;;;;;;;1.20;100.00;;;;;;5045441;28;19936;-70
2024/01/15 08:07:15;;;;;;;;;;;1.20;100.00;;;;;;5050619;28;19939;-71
2024/01/15 08:09:42;;;;;;;;;;;1.20;100.00;;;;;;5052575;28;19925;-71
2024/01/15 08:12:09;;;;;;;;;;;1.20;100.00;;;;;;5042884;28;20385;-70
2024/01/15 08:14:36;;;;;;;;;;;1.20;100.00;;;;;;5045639;28;19947;-70
2024/01/15 08:17:03;;;;;;;;;;;1.20;100.00;;;;;;5052214;28;19936;-70
2024/01/15 08:19:30;;;;;;;;;;;1.20;100.00;;;;;;5043648;28;19932;-70
2024/01/15 08:21:57;;;;;;;;;;;1.20;100.00;;;;;;5045124;28;19971;-70
2024/01/15 08:24:24;;;;;;;;;;;1.20;100.00;;;;;;5045410;28;19968;-70
2024/01/15 08:26:51;;;;;;;;;;;1.20;100.00;;;;;;5060520;28;19932;-71
2024/01/15 08:29:20;;;;;;;;;;;1.30;100.00;;;;;;5060515;28;20767;-70
2024/01/15 08:31:47;;;;;;;;;;;1.30;100.00;;;;;;5041697;28;20455;-70
2024/01/15 08:34:14;;;;;;;;;;;1.30;100.00;;;;;;5059774;28;19939;-70
2024/01/15 08:36:41;;;;;;;;;;;1.30;100.00;;;;;;5027412;28;20085;-71
2024/01/15 08:39:08;;;;;;;;;;;1.30;100.00;;;;;;5060233;28;19929;-71
2024/01/15 08:41:36;;;;;;;;;;;1.30;100.00;;;;;;5044747;28;19935;-70
2024/01/15 08:44:03;;;;;;;;;;;1.40;100.00;;;;;;5044352;28;19929;-70
2024/01/15 08:46:29;;;;;;;;;;;1.40;100.00;;;;;;5045323;28;19968;-71
2024/01/15 08:48:56;;;;;;;;;;;1.40;100.00;;;;;;5060192;28;20037;-71
2024/01/15 08:51:23;;;;;;;;;;;1.40;100.00;;;;;;5045229;28;19929;-70
2024/01/15 08:53:50;;;;;;;;;;;1.40;100.00;;;;;;5044858;28;20024;-71
2024/01/15 08:56:17;;;;;;;;;;;1.40;100.00;;;;;;5059342;28;19964;-71
2024/01/15 08:58:45;;;;;;;;;;;1.40;100.00;;;;;;5045179;28;20344;-71
2024/01/15 09:01:12;;;;;;;;;;;1.40;100.00;;;;;;5045413;28;19928;-70
2024/01/15 09:03:42;;;;;;;;;;;1.40;100.00;;;;;;5045113;28;19951;-71
2024/01/15 09:06:09;;;;;;;;;;;1.40;100.00;;;;;;5043440;28;19933;-70
2024/01/15 09:08:36;;;;;;;;;;;1.40;100.00;;;;;;5044014;28;19928;-70
2024/01/15 09:11:03;;;;;;;;;;;1.40;100.00;;;;;;5027196;28;19935;-70
2024/01/15 09:13:30;;;;;;;;;;;1.40;100.00;;;;;;5027351;28;19928;-71
2024/01/15 09:15:58;;;;;;;;;;;1.40;100.00;;;;;;5044723;28;19932;-70
2024/01/15 09:18:24;;;;;;;;;;;1.40;100.00;;;;;;5043128;28;20347;-71
2024/01/15 09:20:51;;;;;;;;;;;1.40;100.00;;;;;;5059779;28;20336;-71
2024/01/15 09:23:18;;;;;;;;;;;1.40;100.00;;;;;;5043849;28;19983;-70
2024/01/15 09:25:45;;;;;;;;;;;1.40;100.00;;;;;;5043080;28;19937;-70
2024/01/15 09:28:12;;;;;;;;;;;1.40;100.00;;;;;;5042705;28;19976;-70
2024/01/15 09:30:38;;;;;;;;;;;1.30;100.00;;;;;;5058425;28;20022;-70
2024/01/15 09:33:05;;;;;;;;;;;1.30;100.00;;;;;;5044074;28;19951;-70
2024/01/15 09:35:32;;;;;;;;;;;1.30;100.00;;;;;;5026632;28;19994;-71
2024/01/15 09:37:59;;;;;;;;;;;1.30;100.00;;;;;;5043209;28;19955;-71
2024/01/15 09:40:29;;;;;;;;;;;1.30;100.00;;;;;;5026938;28;20006;-70
2024/01/15 09:42:55;;;;;;;;;;;1.30;100.00;;;;;;5036470;28;20416;-71
2024/01/15 09:45:22;;;;;;;;;;;1.30;100.00;;;;;;5043859;28;19956;-71
2024/01/15 09:47:49;;;;;;;;;;;1.30;100.00;;;;;;5044052;28;19983;-71
2024/01/15 09:50:16;;;;;;;;;;;1.40;100.00;;;;;;5044690;28;19955;-71
2024/01/15 09:52:44;;;;;;;;;;;1.30;100.00;;;;;;5045966;28;19935;-71
2024/01/15 09:55:11;;;;;;;;;;;1.30;100.00;;;;;;5045323;28;19929;-71
2024/01/15 09:57:39;;;;;;;;;;;1.20;100.00;;;;;;5047922;28;19929;-71
2024/01/15 10:00:07;;;;;;;;;;;1.10;100.00;;;;;;5048234;28;20427;-71
2024/01/15 10:02:35;;;;;;;;;;;1.10;100.00;;;;;;5048575;28;19928;-71
2024/01/15 10:05:02;;;;;;;;;;;1.00;100.00;;;;;;5047214;28;19936;-71
2024/01/15 10:07:30;;;;;;;;;;;1.00;100.00;;;;;;5048540;28;20016;-71
2024/01/15 10:09:57;;;;;;;;;;;0.80;100.00;;;;;;5048490;28;19929;-71
2024/01/15 10:12:24;;;;;;;;;;;0.40;100.00;;;;;;5047416;28;20309;-71
2024/01/15 10:14:51;;;;;;;;;;;0.30;100.00;;;;;;5048168;28;19924;-71
2024/01/15 10:17:18;;;;;;;;;;;0.20;100.00;;;;;;5047128;28;19964;-71
2024/01/15 10:19:45;;;;;;;;;;;0.20;100.00;;;;;;5063564;28;19933;-71
2024/01/15 10:22:15;;;;;;;;;;;0.20;100.00;;;;;;5046325;28;19940;-70
2024/01/15 10:24:42;;;;;;;;;;;0.20;100.00;;;;;;5029484;28;19990;-71
2024/01/15 10:27:10;;;;;;;;;;;0.20;100.00;;;;;;5047617;28;19931;-70
2024/01/15 10:29:36;;;;;;;;;;;0.20;100.00;;;;;;5047024;28;20445;-71
2024/01/15 10:32:08;;;;;;;;;;;0.20;100.00;;;;;;5047730;28;20536;-71
2024/01/15 10:34:42;;;;;;;;;;;0.30;100.00;;;;;;5029080;28;20585;-70
2024/01/15 10:37:10;;;;;;;;;;;0.30;100.00;;;;;;5045507;28;19929;-71
2024/01/15 10:39:37;;;;;;;;;;;0.30;100.00;;;;;;5046981;28;19963;-70
2024/01/15 10:42:06;;;;;;;;;;;0.30;100.00;;;;;;5047689;28;20313;-70
2024/01/15 10:44:34;;;;;;;;;;;0.40;100.00;;;;;;5046813;28;19933;-71
2024/01/15 10:47:00;;;;;;;;;;;0.40;100.00;;;;;;5030063;28;19947;-71
2024/01/15 10:49:29;;;;;;;;;;;0.40;100.00;;;;;;5063021;28;20478;-70
2024/01/15 10:52:00;;;;;;;;;;;0.40;100.00;;;;;;5047579;28;19991;-71
2024/01/15 10:54:27;;;;;;;;;;;0.50;100.00;;;;;;5047533;28;19936;-71
2024/01/15 10:56:56;;;;;;;;;;;0.60;100.00;;;;;;5046140;28;20256;-70
2024/01/15 10:59:23;;;;;;;;;;;0.60;100.00;;;;;;5047769;28;20040;-70
2024/01/15 11:01:50;;;;;;;;;;;0.60;100.00;;;;;;5047350;28;19933;-71
2024/01/15 11:04:18;;;;;;;;;;;0.70;100.00;;;;;;5045206;28;19951;-70
2024/01/15 11:06:45;;;;;;;;;;;0.70;100.00;;;;;;5046076;28;20024;-71
2024/01/15 11:09:15;;;;;;;;;;;0.70;100.00;;;;;;5054861;28;20403;-70
2024/01/15 11:11:44;;;;;;;;;;;0.70;100.00;;;;;;5046743;28;20008;-70
2024/01/15 11:14:31;;;;;;;;;;;0.70;100.00;;;;;;5047474;28;19982;-70
2024/01/15 11:17:01;;;;;;;;;;;0.70;100.00;;;;;;5028572;28;19950;-70
2024/01/15 11:19:47;;;;;;;;;;;0.70;100.00;;;;;;5046794;28;19928;-71
2024/01/15 11:22:30;;;;;;;;;;;0.70;100.00;;;;;;5039518;28;19934;-70
2024/01/15 11:24:57;;;;;;;;;;;0.60;100.00;;;;;;5059655;28;20446;-70
2024/01/15 11:27:43;;;;;;;;;;;0.60;100.00;;;;;;5046535;28;20523;-70
2024/01/15 11:30:11;;;;;;;;;;;0.60;100.00;;;;;;5046301;28;19924;-71
2024/01/15 11:32:42;;;;;;;;;;;0.40;100.00;;;;;;5045335;28;20388;-71
2024/01/15 11:35:10;;;;;;;;;;;0.30;100.00;;;;;;5044624;28;20297;-70
2024/01/15 11:37:54;;;;;;;;;;;0.30;100.00;;;;;;5045470;28;19952;-70
2024/01/15 11:40:21;;;;;;;;;;;0.30;100.00;;;;;;5041467;28;19929;-70
2024/01/15 11:42:49;;;;;;;;;;;0.20;100.00;;;;;;5020186;28;20028;-71
2024/01/15 11:45:18;;;;;;;;;;;0.20;100.00;;;;;;5046350;28;19932;-71
2024/01/15 11:47:47;;;;;;;;;;;0.20;100.00;;;;;;5023706;28;19943;-71
2024/01/15 11:50:14;;;;;;;;;;;0.20;100.00;;;;;;5039862;28;20013;-70
2024/01/15 11:52:46;;;;;;;;;;;0.20;100.00;;;;;;5046522;28;19939;-70
2024/01/15 11:55:19;;;;;;;;;;;0.10;100.00;;;;;;5042997;28;20742;-70
2024/01/15 11:57:49;;;;;;;;;;;0.10;100.00;;;;;;5027686;28;19925;-71
2024/01/15 12:00:16;;;;;;;;;;;0.10;100.00;;;;;;5043431;28;20606;-70
2024/01/15 12:02:44;;;;;;;;;;;0.10;100.00;;;;;;5045944;28;19936;-70
2024/01/15 12:05:13;;;;;;;;;;;0.10;100.00;;;;;;5045697;28;19929;-70
2024/01/15 12:07:41;;;;;;;;;;;0.00;100.00;;;;;;5046305;28;19979;-70
2024/01/15 12:10:12;;;;;;;;;;;0.00;100.00;;;;;;5045787;28;20699;-70
2024/01/15 12:12:42;;;;;;;;;;;0.00;100.00;;;;;;5046268;28;19932;-70
2024/01/15 12:15:09;;;;;;;;;;;0.00;100.00;;;;;;5045001;28;19988;-71
2024/01/15 12:17:36;;;;;;;;;;;0.10;100.00;;;;;;5028069;28;19979;-71
2024/01/15 12:20:06;;;;;;;;;;;0.10;100.00;;;;;;5045842;28;19928;-70
2024/01/15 12:22:33;;;;;;;;;;;0.10;100.00;;;;;;5046027;28;19937;-71
2024/01/15 12:25:20;;;;;;;;;;;0.10;100.00;;;;;;5038109;28;20000;-70
2024/01/15 12:27:47;;;;;;;;;;;0.10;100.00;;;;;;5060670;28;19936;-70
2024/01/15 12:30:15;;;;;;;;;;;0.10;100.00;;;;;;5046038;28;19960;-70
2024/01/15 12:32:42;;;;;;;;;;;0.10;100.00;;;;;;5045914;28;19997;-71
2024/01/15 12:35:12;;;;;;;;;;;0.10;100.00;;;;;;5027742;28;20708;-71
2024/01/15 12:37:39;;;;;;;;;;;0.10;100.00;;;;;;5044567;28;19929;-70
2024/01/15 12:40:07;;;;;;;;;;;0.10;100.00;;;;;;5044902;28;20675;-69
2024/01/15 12:42:34;;;;;;;;;;;0.10;100.00;;;;;;5044019;28;19935;-70
2024/01/15 12:45:00;;;;;;;;;;;0.10;100.00;;;;;;5044168;28;19928;-70
2024/01/15 12:47:27;;;;;;;;;;;0.10;100.00;;;;;;5043193;28;19960;-70
2024/01/15 12:49:54;;;;;;;;;;;0.10;100.00;;;;;;5031713;28;19928;-70
2024/01/15 12:52:33;;;;;;;;;;;0.10;100.00;;;;;;5044356;28;20468;-69
2024/01/15 12:55:00;;;;;;;;;;;0.10;100.00;;;;;;5044274;28;19928;-70
2024/01/15 12:57:26;;;;;;;;;;;0.10;100.00;;;;;;5043066;28;19979;-69
2024/01/15 12:59:54;;;;;;;;;;;0.00;100.00;;;;;;5032478;28;19929;-68
2024/01/15 13:02:21;;;;;;;;;;;0.00;100.00;;;;;;5044102;28;19924;-68
2024/01/15 13:04:48;;;;;;;;;;;0.10;100.00;;;;;;5043206;28;20010;-68
2024/01/15 13:07:15;;;;;;;;;;;0.10;100.00;;;;;;5043797;28;20025;-69
2024/01/15 13:09:43;;;;;;;;;;;0.00;100.00;;;;;;5044856;28;19932;-68
2024/01/15 13:12:09;;;;;;;;;;;0.00;100.00;;;;;;5044861;28;19940;-68
2024/01/15 13:14:36;;;;;;;;;;;0.00;100.00;;;;;;5043483;28;19933;-68
2024/01/15 13:17:03;;;;;;;;;;;0.00;100.00;;;;;;5027751;28;19936;-68
2024/01/15 13:19:30;;;;;;;;;;;0.00;100.00;;;;;;5043964;28;19933;-68
2024/01/15 13:22:00;;;;;;;;;;;0.00;100.00;;;;;;5045147;28;19976;-68
2024/01/15 13:24:26;;;;;;;;;;;0.00;100.00;;;;;;5043597;28;19940;-68
2024/01/15 13:26:54;;;;;;;;;;;0.00;100.00;;;;;;5042597;28;19929;-68
2024/01/15 13:29:21;;;;;;;;;;;0.00;100.00;;;;;;5048895;28;19991;-69
2024/01/15 13:31:48;;;;;;;;;;;0.00;100.00;;;;;;5041498;28;20032;-68
2024/01/15 13:34:15;;;;;;;;;;;0.00;100.00;;;;;;5047374;28;19932;-68
2024/01/15 13:36:42;;;;;;;;;;;0.00;100.00;;;;;;5060438;28;20412;-68
2024/01/15 13:39:09;;;;;;;;;;;0.00;100.00;;;;;;5043718;28;20047;-70
2024/01/15 13:41:36;;;;;;;;;;;0.00;100.00;;;;;;5044659;28;19928;-69
2024/01/15 13:44:03;;;;;;;;;;;0.00;100.00;;;;;;5043667;28;19928;-72
2024/01/15 13:46:30;;;;;;;;;;;0.00;100.00;;;;;;5059765;28;20393;-70
2024/01/15 13:48:57;;;;;;;;;;;0.00;100.00;;;;;;5027492;28;20630;-69
2024/01/15 13:51:24;;;;;;;;;;;0.00;100.00;;;;;;5043814;28;19929;-69
2024/01/15 13:53:51;;;;;;;;;;;0.00;100.00;;;;;;5056275;28;19978;-69
2024/01/15 13:56:18;;;;;;;;;;;0.00;100.00;;;;;;5042552;28;19929;-69
2024/01/15 13:58:47;;;;;;;;;;;0.00;100.00;;;;;;5044607;28;20532;-69
2024/01/15 14:01:14;;;;;;;;;;;0.00;100.00;;;;;;5042216;28;19964;-69
2024/01/15 14:03:41;;;;;;;;;;;0.00;100.00;;;;;;5044770;28;20019;-69
2024/01/15 14:09:31;;;;;;;;;;;-0.10;100.00;;;;;;5088534;22;19950;-67
2024/01/15 14:11:58;;;;;;;;;;;-0.10;100.00;;;;;;5084326;28;20034;-67
2024/01/15 14:14:25;;;;;;;;;;;-0.10;100.00;;;;;;5083424;28;19932;-66
2024/01/15 14:16:52;;;;;;;;;;;-0.20;100.00;;;;;;5066957;28;19935;-67
2024/01/15 14:19:20;;;;;;;;;;;-0.20;100.00;;;;;;5084516;28;19963;-66
2024/01/15 14:21:47;;;;;;;;;;;-0.20;100.00;;;;;;5085211;28;19932;-66